KMSY/MSY METAR and TAF weather

Enter ICAO airport designator
Station Type Date Time Source
KMSY METAR 2018/12/12 11:53 UTC NOAA

KMSY 121153Z 00000KT 10SM FEW002 FEW250 03/02 A3028 RMK AO2 SLP255 T00280022 10056 20022 53001


Station Type Date Time Source
KMSY Decoded METAR 2018/12/12 11:53 UTC NOAA

NEW ORLEANS INTERNATIONAL AIRPORT, LA, United States (KMSY) 30-00N 90-15W 5M
Dec 12, 2018 - 06:53 AM EST / 2018.12.12 1153 UTC
Wind: Calm:0
Visibility: 10 mile(s):0
Sky conditions: mostly clear
Temperature: 37.0 F (2.8 C)
Dew Point: 36.0 F (2.2 C)
Relative Humidity: 95%
Pressure (altimeter): 30.28 in. Hg (1025 hPa)
Pressure tendency: 0.00 inches (0.1 hPa) higher than three hours ago
ob: KMSY 121153Z 00000KT 10SM FEW002 FEW250 03/02 A3028 RMK AO2 SLP255 T00280022 10056 20022 53001
cycle: 12

Station Type Date Time Source
KMSY TAF 2018/12/12 12:36 UTC NOAA

TAF KMSY 121135Z 1212/1318 36003KT P6SM FEW002 FEW250
TEMPO 1212/1214 3SM BR BKN002
FM121700 15006KT P6SM BKN250
FM131200 12006KT 6SM SHRA OVC050


Example: see airport list